Time;durP1;ratioP1;P1;durP2;ratioP2;P2;SDS_P1;SDS_P2;PMS_P1;PMS_P2;Temp;Humidity;BMP_temperature;BMP_pressure;BME280_temperature;BME280_humidity;BME280_pressure;Samples;Min_cycle;Max_cycle;Signal;HPM_P1;HPM_P2
2023/08/21 00:01:23;;;;;;;11.70;6.10;;;;;;;19.03;100.00;100369.70;109110;1257;60509;-61
2023/08/21 00:04:09;;;;;;;14.00;6.50;;;;;;;18.99;100.00;100369.70;109104;1257;61384;-62
2023/08/21 00:06:56;;;;;;;10.50;5.80;;;;;;;18.96;100.00;100372.18;109141;1257;74028;-60
2023/08/21 00:09:42;;;;;;;10.80;5.90;;;;;;;18.92;100.00;100381.65;109097;1257;67143;-61
2023/08/21 00:12:28;;;;;;;10.20;5.90;;;;;;;18.90;100.00;100382.05;109030;1257;73743;-60
2023/08/21 00:15:15;;;;;;;11.90;6.10;;;;;;;18.88;100.00;100384.21;109087;1257;59572;-61
2023/08/21 00:18:01;;;;;;;12.20;5.90;;;;;;;18.86;100.00;100387.89;109117;1257;61068;-61
2023/08/21 00:20:47;;;;;;;10.20;5.20;;;;;;;18.83;100.00;100387.63;109109;1257;73153;-61
2023/08/21 00:23:34;;;;;;;10.90;5.80;;;;;;;18.79;100.00;100380.52;109163;1257;67932;-60
2023/08/21 00:26:20;;;;;;;10.60;5.80;;;;;;;18.76;100.00;100379.70;109140;1257;73501;-61
2023/08/21 00:29:07;;;;;;;11.60;5.30;;;;;;;18.76;100.00;100379.94;109086;1258;59403;-60
2023/08/21 00:31:53;;;;;;;11.10;5.10;;;;;;;18.71;100.00;100380.84;109140;1257;61176;-59
2023/08/21 00:34:41;;;;;;;10.30;5.50;;;;;;;18.67;100.00;100374.45;109124;1257;73865;-60
2023/08/21 00:37:27;;;;;;;10.20;5.60;;;;;;;18.62;100.00;100370.65;109045;1258;67694;-61
2023/08/21 00:40:13;;;;;;;10.50;5.40;;;;;;;18.54;100.00;100370.00;108981;1258;72408;-60
2023/08/21 00:42:59;;;;;;;9.90;5.10;;;;;;;18.45;100.00;100367.96;108981;1257;59479;-60
2023/08/21 00:45:47;;;;;;;12.50;5.20;;;;;;;18.34;100.00;100368.05;109125;1257;58780;-61
2023/08/21 00:48:34;;;;;;;9.70;4.80;;;;;;;18.22;100.00;100369.13;109045;1257;72993;-59
2023/08/21 00:51:21;;;;;;;11.10;5.50;;;;;;;18.12;100.00;100365.45;109138;1257;68612;-61
2023/08/21 00:54:08;;;;;;;10.40;5.70;;;;;;;18.03;100.00;100366.61;109074;1257;72597;-60
2023/08/21 00:56:54;;;;;;;10.70;5.60;;;;;;;17.95;100.00;100365.45;109136;1257;60630;-61
2023/08/21 00:59:40;;;;;;;10.40;5.40;;;;;;;17.87;100.00;100367.66;109175;1257;59075;-61
2023/08/21 01:02:27;;;;;;;10.90;5.30;;;;;;;17.80;100.00;100368.63;109070;1257;73810;-61
2023/08/21 01:05:13;;;;;;;10.50;5.40;;;;;;;17.72;100.00;100367.27;109116;1257;66543;-61
2023/08/21 01:08:10;;;;;;;10.80;5.20;;;;;;;17.66;100.00;100366.08;109089;1257;72524;-61
2023/08/21 01:11:17;;;;;;;10.20;5.80;;;;;;;17.61;100.00;100363.70;109111;1257;58280;-60
2023/08/21 01:14:10;;;;;;;9.60;4.70;;;;;;;17.58;100.00;100364.02;109026;1257;61071;-60
2023/08/21 01:17:02;;;;;;;11.10;4.80;;;;;;;17.53;100.00;100360.80;109140;1257;73902;-60
2023/08/21 01:19:51;;;;;;;10.90;5.60;;;;;;;17.49;100.00;100362.21;108981;1257;69096;-59
2023/08/21 01:22:40;;;;;;;10.90;5.40;;;;;;;17.46;100.00;100361.15;109015;1257;72635;-60
2023/08/21 01:25:26;;;;;;;9.50;4.90;;;;;;;17.40;100.00;100362.41;108974;1258;60484;-61
2023/08/21 01:28:13;;;;;;;12.50;5.50;;;;;;;17.37;100.00;100364.73;109096;1257;60028;-59
2023/08/21 01:31:23;;;;;;;13.20;8.10;;;;;;;17.32;100.00;100367.73;109107;1257;74056;-60
2023/08/21 01:34:11;;;;;;;14.40;8.30;;;;;;;17.28;100.00;100370.13;108974;1257;68096;-60
2023/08/21 01:36:57;;;;;;;12.20;6.70;;;;;;;17.22;100.00;100370.23;109055;1258;73550;-62
2023/08/21 01:39:44;;;;;;;11.00;6.00;;;;;;;17.17;100.00;100372.25;108981;1258;59317;-63
2023/08/21 01:42:30;;;;;;;9.60;5.30;;;;;;;17.16;100.00;100374.70;109038;1258;61333;-63
2023/08/21 01:45:16;;;;;;;11.10;5.20;;;;;;;17.16;100.00;100369.89;109063;1257;74070;-60
2023/08/21 01:48:02;;;;;;;11.60;5.60;;;;;;;17.17;100.00;100372.11;109126;1257;67928;-60
2023/08/21 01:50:49;;;;;;;11.50;5.60;;;;;;;17.16;100.00;100368.21;109065;1257;72631;-60
2023/08/21 01:53:36;;;;;;;10.20;5.10;;;;;;;17.16;100.00;100368.21;109119;1258;59752;-61
2023/08/21 01:56:23;;;;;;;10.10;5.20;;;;;;;17.17;100.00;100371.24;109079;1257;60441;-61
2023/08/21 01:59:09;;;;;;;10.10;4.80;;;;;;;17.18;100.00;100369.80;109038;1257;72816;-61
2023/08/21 02:01:55;;;;;;;9.10;5.00;;;;;;;17.20;100.00;100365.55;109124;1257;65887;-61
2023/08/21 02:04:42;;;;;;;10.60;5.20;;;;;;;17.17;100.00;100363.27;109105;1257;73770;-61
2023/08/21 02:07:28;;;;;;;11.70;5.30;;;;;;;17.15;100.00;100360.13;109106;1259;60807;-61
2023/08/21 02:10:14;;;;;;;10.00;5.30;;;;;;;17.11;100.00;100363.05;109123;1257;61109;-60
2023/08/21 02:13:00;;;;;;;10.40;4.90;;;;;;;17.07;100.00;100362.95;109121;1257;73124;-60
2023/08/21 02:15:47;;;;;;;10.30;5.20;;;;;;;17.01;100.00;100369.15;109105;1258;67898;-61
2023/08/21 02:18:33;;;;;;;11.50;5.40;;;;;;;16.98;100.00;100366.64;109029;1257;73831;-59
2023/08/21 02:21:20;;;;;;;10.00;4.70;;;;;;;16.94;100.00;100370.98;109063;1257;60368;-59
2023/08/21 02:24:07;;;;;;;9.20;4.10;;;;;;;16.90;100.00;100371.77;109079;1257;58863;-59
2023/08/21 02:26:53;;;;;;;8.80;4.40;;;;;;;16.86;100.00;100372.52;109046;1257;73843;-62
2023/08/21 02:29:40;;;;;;;9.70;4.10;;;;;;;16.82;100.00;100372.16;109107;1260;68848;-61
2023/08/21 02:32:26;;;;;;;8.90;4.30;;;;;;;16.79;100.00;100371.23;109120;1257;73606;-61
2023/08/21 02:35:12;;;;;;;8.40;4.10;;;;;;;16.76;100.00;100375.28;109129;1257;58417;-61
2023/08/21 02:37:59;;;;;;;8.90;3.60;;;;;;;16.72;100.00;100370.10;109088;1257;61465;-62
2023/08/21 02:40:45;;;;;;;7.90;3.50;;;;;;;16.68;100.00;100372.60;109141;1257;73880;-62
2023/08/21 02:43:31;;;;;;;9.60;4.00;;;;;;;16.62;99.86;100368.53;109168;1257;68917;-59
2023/08/21 02:46:17;;;;;;;8.70;3.70;;;;;;;16.57;99.61;100371.15;109111;1257;72707;-60
2023/08/21 02:49:04;;;;;;;8.20;3.40;;;;;;;16.53;99.56;100372.68;109049;1257;60637;-60
2023/08/21 02:51:50;;;;;;;7.30;3.00;;;;;;;16.47;99.67;100370.17;109126;1257;61404;-61
2023/08/21 02:54:37;;;;;;;8.40;3.40;;;;;;;16.43;99.90;100372.40;109077;1257;73020;-60
2023/08/21 02:57:26;;;;;;;7.70;3.40;;;;;;;16.40;99.98;100369.45;109153;1258;68725;-60
2023/08/21 03:00:13;;;;;;;8.10;3.40;;;;;;;16.38;99.86;100368.02;109061;1257;72752;-61
2023/08/21 03:02:59;;;;;;;9.50;3.80;;;;;;;16.38;99.73;100364.69;109041;1257;60557;-61
2023/08/21 03:05:45;;;;;;;8.80;3.40;;;;;;;16.38;99.51;100369.46;109160;1258;61121;-61
2023/08/21 03:08:31;;;;;;;8.90;3.60;;;;;;;16.40;99.52;100363.70;109136;1257;73103;-62
2023/08/21 03:11:18;;;;;;;7.40;3.50;;;;;;;16.40;98.93;100363.35;109108;1257;68807;-64
2023/08/21 03:14:04;;;;;;;6.60;2.80;;;;;;;16.40;98.53;100359.64;109093;1257;72729;-62
2023/08/21 03:16:50;;;;;;;7.50;2.60;;;;;;;16.37;98.00;100360.62;109072;1257;60384;-62
2023/08/21 03:19:37;;;;;;;8.40;2.90;;;;;;;16.33;98.05;100363.10;109115;1257;61421;-61
2023/08/21 03:22:23;;;;;;;7.70;2.90;;;;;;;16.29;97.89;100359.89;109106;1258;72954;-62
2023/08/21 03:25:09;;;;;;;10.40;3.60;;;;;;;16.24;97.64;100355.77;109101;1257;68938;-62
2023/08/21 03:27:56;;;;;;;6.70;2.70;;;;;;;16.19;97.65;100356.28;109069;1257;72463;-62
2023/08/21 03:30:42;;;;;;;7.30;3.00;;;;;;;16.09;97.78;100346.59;109060;1258;60048;-61
2023/08/21 03:33:29;;;;;;;7.00;3.00;;;;;;;16.09;97.57;100348.30;109110;1259;61346;-60
2023/08/21 03:36:15;;;;;;;7.80;3.30;;;;;;;16.05;98.14;100344.36;109132;1258;74349;-61
2023/08/21 03:39:05;;;;;;;7.80;2.90;;;;;;;16.01;97.97;100342.95;109135;1258;67968;-59
2023/08/21 03:41:54;;;;;;;7.70;2.90;;;;;;;15.97;98.08;100345.23;109048;1257;71549;-61
2023/08/21 03:44:43;;;;;;;8.40;3.00;;;;;;;15.96;98.58;100345.59;109073;1257;60624;-60
2023/08/21 03:47:29;;;;;;;8.10;3.30;;;;;;;15.95;98.48;100348.38;109098;1259;60097;-61
2023/08/21 03:50:18;;;;;;;7.30;3.40;;;;;;;15.93;98.62;100350.80;109098;1257;71724;-61
2023/08/21 03:53:05;;;;;;;8.40;3.20;;;;;;;15.93;98.95;100345.48;109076;1257;67719;-60
2023/08/21 03:55:52;;;;;;;7.50;2.70;;;;;;;15.91;99.05;100339.56;109104;1257;72598;-61
2023/08/21 03:58:38;;;;;;;7.20;2.70;;;;;;;15.91;99.02;100341.81;109102;1257;59519;-61
2023/08/21 04:01:25;;;;;;;7.60;3.30;;;;;;;15.89;99.16;100342.48;109145;1257;58864;-60
2023/08/21 04:04:12;;;;;;;9.70;3.40;;;;;;;15.88;99.47;100348.13;109078;1258;73069;-60
2023/08/21 04:06:58;;;;;;;8.40;3.30;;;;;;;15.88;99.84;100342.45;109147;1257;68826;-61
2023/08/21 04:09:45;;;;;;;7.00;3.30;;;;;;;15.88;99.98;100340.83;109068;1259;71978;-60
2023/08/21 04:12:32;;;;;;;9.40;3.50;;;;;;;15.89;100.00;100342.09;109130;1258;58059;-59
2023/08/21 04:15:18;;;;;;;8.30;3.80;;;;;;;15.91;100.00;100340.29;109091;1258;61377;-61
2023/08/21 04:18:05;;;;;;;8.70;3.70;;;;;;;15.94;100.00;100343.04;109102;1257;72921;-61
2023/08/21 04:20:51;;;;;;;9.60;3.10;;;;;;;16.01;100.00;100338.61;109047;1257;68702;-59
2023/08/21 04:23:37;;;;;;;9.30;3.30;;;;;;;16.11;100.00;100343.73;109100;1258;73727;-61
2023/08/21 04:26:23;;;;;;;8.80;3.70;;;;;;;16.25;100.00;100342.08;109093;1257;58696;-60
2023/08/21 04:29:10;;;;;;;8.10;2.70;;;;;;;16.34;100.00;100343.14;109123;1257;59985;-59
2023/08/21 04:31:56;;;;;;;8.20;3.40;;;;;;;16.41;100.00;100338.77;109013;1260;73011;-60
2023/08/21 04:34:43;;;;;;;9.20;3.70;;;;;;;16.43;100.00;100335.50;108992;1258;69139;-63
2023/08/21 04:37:30;;;;;;;9.90;3.90;;;;;;;16.44;99.94;100330.55;109001;1258;72349;-60
2023/08/21 04:40:17;;;;;;;9.30;3.20;;;;;;;16.46;99.97;100330.94;109054;1258;60607;-61
2023/08/21 04:43:03;;;;;;;9.10;3.60;;;;;;;16.47;100.00;100326.17;108976;1258;60151;-61
2023/08/21 04:45:54;;;;;;;9.00;3.60;;;;;;;16.53;100.00;100334.17;108982;1258;73626;-60
2023/08/21 04:48:42;;;;;;;11.20;3.70;;;;;;;16.58;100.00;100334.02;108855;1258;67507;-64
2023/08/21 04:51:29;;;;;;;9.50;3.30;;;;;;;16.62;100.00;100335.26;108999;1258;72617;-60
2023/08/21 04:54:16;;;;;;;9.20;3.50;;;;;;;16.65;100.00;100334.00;109063;1258;58120;-61
2023/08/21 04:57:03;;;;;;;11.10;4.10;;;;;;;16.69;100.00;100335.22;108870;1258;59475;-61
2023/08/21 04:59:50;;;;;;;9.60;3.40;;;;;;;16.76;100.00;100332.02;108858;1264;74033;-61
2023/08/21 05:02:37;;;;;;;12.20;3.80;;;;;;;16.88;100.00;100336.28;108826;1261;66466;-61
2023/08/21 05:05:25;;;;;;;9.00;3.10;;;;;;;16.98;99.94;100338.14;108886;1261;72618;-60
2023/08/21 05:08:12;;;;;;;10.10;3.40;;;;;;;17.04;99.41;100331.83;108821;1261;59289;-61
2023/08/21 05:10:59;;;;;;;9.10;3.50;;;;;;;17.06;99.14;100331.98;108836;1260;60256;-61
2023/08/21 05:13:47;;;;;;;9.30;3.40;;;;;;;17.09;99.12;100342.83;108752;1260;73140;-61
2023/08/21 05:16:33;;;;;;;9.60;3.60;;;;;;;17.16;99.12;100345.16;108912;1260;66443;-61
2023/08/21 05:19:20;;;;;;;11.80;3.40;;;;;;;17.34;98.81;100340.31;108895;1261;71695;-59
2023/08/21 05:22:06;;;;;;;10.20;3.60;;;;;;;17.54;98.00;100347.55;108907;1261;59452;-62
2023/08/21 05:24:54;;;;;;;8.60;3.00;;;;;;;17.75;96.38;100347.88;108919;1261;58408;-63
2023/08/21 05:27:41;;;;;;;14.30;3.40;;;;;;;17.96;95.19;100350.21;108898;1260;72828;-61
2023/08/21 05:30:27;;;;;;;9.80;3.60;;;;;;;18.21;94.51;100354.06;108939;1258;67696;-61
2023/08/21 05:33:13;;;;;;;11.80;3.40;;;;;;;18.48;93.01;100356.32;108957;1258;72673;-63
2023/08/21 05:36:01;;;;;;;9.30;3.30;;;;;;;18.69;91.97;100356.54;108999;1258;57963;-62
2023/08/21 05:38:48;;;;;;;11.30;3.30;;;;;;;18.82;91.30;100357.16;108997;1258;60201;-62
2023/08/21 05:41:34;;;;;;;10.00;3.40;;;;;;;18.92;89.76;100359.70;109000;1259;72985;-61
2023/08/21 05:44:21;;;;;;;10.40;3.60;;;;;;;18.98;89.42;100361.23;109082;1258;69322;-63
2023/08/21 05:47:07;;;;;;;8.60;3.10;;;;;;;19.00;88.52;100363.16;108972;1258;72461;-63
2023/08/21 05:49:53;;;;;;;9.00;3.00;;;;;;;19.04;88.50;100364.14;109052;1258;57638;-61
2023/08/21 05:52:40;;;;;;;9.40;2.90;;;;;;;19.11;87.86;100361.52;109054;1259;59066;-63
2023/08/21 05:55:29;;;;;;;10.40;3.30;;;;;;;19.74;86.57;100368.14;109054;1261;73855;-64
2023/08/21 05:58:16;;;;;;;8.80;2.90;;;;;;;20.93;82.32;100361.73;109029;1258;66358;-63
2023/08/21 06:01:02;;;;;;;7.80;2.80;;;;;;;22.00;76.34;100361.09;108994;1259;73727;-62
2023/08/21 06:03:51;;;;;;;9.00;2.50;;;;;;;22.46;73.45;100363.29;109038;1258;58366;-63
2023/08/21 06:06:51;;;;;;;7.90;2.50;;;;;;;22.61;69.81;100366.53;109012;1258;61379;-62
2023/08/21 06:09:37;;;;;;;9.10;2.60;;;;;;;23.41;65.92;100361.10;109014;1258;74051;-62
2023/08/21 06:12:27;;;;;;;8.40;2.40;;;;;;;24.12;62.67;100360.03;108977;1259;68866;-62
2023/08/21 06:15:14;;;;;;;8.50;2.20;;;;;;;24.90;60.33;100362.41;109031;1260;73710;-64
2023/08/21 06:18:01;;;;;;;9.00;2.40;;;;;;;24.95;59.47;100361.50;108983;1258;59150;-64
2023/08/21 06:20:53;;;;;;;7.80;2.40;;;;;;;24.89;60.00;100358.46;109000;1259;58239;-69
2023/08/21 06:23:39;;;;;;;10.60;2.50;;;;;;;25.42;58.50;100352.17;109009;1258;73817;-69
2023/08/21 06:26:25;;;;;;;9.10;2.60;;;;;;;26.11;56.08;100354.11;109103;1258;67917;-68
2023/08/21 06:29:12;;;;;;;10.00;2.40;;;;;;;27.05;53.38;100350.00;109048;1258;73414;-70
2023/08/21 06:31:59;;;;;;;8.00;2.20;;;;;;;28.22;49.99;100351.89;108960;1258;57394;-68
2023/08/21 06:34:46;;;;;;;8.90;2.10;;;;;;;29.21;46.25;100350.16;108940;1261;59328;-67
2023/08/21 06:37:32;;;;;;;9.60;2.30;;;;;;;30.03;44.08;100348.28;108818;1262;74082;-70
2023/08/21 06:40:18;;;;;;;8.80;2.20;;;;;;;30.78;42.73;100350.51;108688;1261;219041;-69
2023/08/21 06:43:06;;;;;;;8.40;1.80;;;;;;;31.15;41.03;100353.38;108884;1261;71594;-66
2023/08/21 06:45:53;;;;;;;6.60;1.90;;;;;;;31.69;39.24;100348.79;108917;1261;57365;-69
2023/08/21 06:48:43;;;;;;;7.00;2.00;;;;;;;32.14;38.42;100353.54;108797;1262;59990;-67
2023/08/21 06:51:29;;;;;;;8.30;2.00;;;;;;;32.79;37.18;100353.91;108855;1261;71134;-66
2023/08/21 06:54:17;;;;;;;11.40;2.00;;;;;;;33.27;36.16;100356.08;108876;1262;67905;-67
2023/08/21 06:57:04;;;;;;;7.90;1.90;;;;;;;33.68;35.03;100356.43;108843;1262;73379;-67
2023/08/21 06:59:50;;;;;;;7.00;1.50;;;;;;;34.14;34.18;100366.13;108817;1262;58125;-68
2023/08/21 07:02:37;;;;;;;7.60;1.80;;;;;;;34.41;32.89;100362.62;108833;1261;60553;-66
2023/08/21 07:05:24;;;;;;;7.90;1.80;;;;;;;34.50;32.43;100361.70;108880;1260;73863;-68
2023/08/21 07:08:10;;;;;;;7.70;1.80;;;;;;;34.66;32.36;100356.10;109001;1260;66856;-70
2023/08/21 07:10:56;;;;;;;8.00;1.70;;;;;;;34.91;32.00;100355.39;108907;1261;73838;-68
2023/08/21 07:13:43;;;;;;;6.60;1.60;;;;;;;35.33;31.71;100358.89;108956;1261;57875;-69
2023/08/21 07:16:29;;;;;;;8.60;1.70;;;;;;;35.59;30.63;100358.27;108895;1259;60260;-67
2023/08/21 07:19:17;;;;;;;7.80;1.40;;;;;;;35.70;30.20;100362.45;108979;1261;73134;-67
2023/08/21 07:22:03;;;;;;;6.90;1.60;;;;;;;35.93;30.11;100362.91;109009;1260;68890;-69
2023/08/21 07:24:49;;;;;;;6.40;1.60;;;;;;;36.15;29.13;100355.35;108843;1264;72576;-69
2023/08/21 07:27:35;;;;;;;7.50;1.60;;;;;;;36.41;28.80;100358.13;108836;1262;57614;-73
2023/08/21 07:30:23;;;;;;;7.40;1.40;;;;;;;36.11;29.39;100360.23;108831;1262;61212;-69
2023/08/21 07:33:09;;;;;;;8.60;1.70;;;;;;;35.57;29.42;100361.75;108858;1261;74062;-69
2023/08/21 07:36:04;;;;;;;8.10;1.80;;;;;;;35.83;29.78;100366.36;108877;1261;67868;-68
2023/08/21 07:38:51;;;;;;;7.20;1.80;;;;;;;36.16;29.04;100364.54;108877;1260;72715;-67
2023/08/21 07:41:37;;;;;;;7.90;1.50;;;;;;;36.22;28.91;100362.73;108888;1260;57480;-68
2023/08/21 07:44:23;;;;;;;9.20;1.50;;;;;;;36.41;28.08;100360.46;108975;1260;59845;-69
2023/08/21 07:47:10;;;;;;;8.10;1.30;;;;;;;36.46;28.28;100359.09;108994;1259;72762;-66
2023/08/21 07:49:57;;;;;;;7.60;1.60;;;;;;;36.20;28.36;100363.52;108961;1260;66671;-68
2023/08/21 07:52:43;;;;;;;8.00;1.70;;;;;;;35.64;29.17;100366.60;108911;1260;72634;-69
2023/08/21 07:55:30;;;;;;;6.10;1.40;;;;;;;35.88;28.92;100370.00;108977;1258;58960;-67
2023/08/21 07:58:16;;;;;;;7.20;1.60;;;;;;;35.94;28.68;100366.50;109057;1258;60697;-70
2023/08/21 08:01:04;;;;;;;7.30;1.60;;;;;;;35.92;28.77;100366.02;108989;1258;72938;-67
2023/08/21 08:03:50;;;;;;;7.90;1.50;;;;;;;36.23;28.48;100364.46;109007;1258;69199;-67
2023/08/21 08:06:37;;;;;;;7.00;1.20;;;;;;;36.41;27.92;100362.13;108973;1259;70823;-71
2023/08/21 08:09:23;;;;;;;6.60;1.50;;;;;;;36.49;27.74;100355.94;108931;1263;57346;-68
2023/08/21 08:12:09;;;;;;;6.40;1.30;;;;;;;36.52;27.72;100358.63;109083;1257;61224;-67
2023/08/21 08:14:55;;;;;;;5.60;1.20;;;;;;;36.59;27.97;100357.36;109087;1257;73294;-66
2023/08/21 08:17:42;;;;;;;7.00;1.60;;;;;;;36.68;27.41;100348.09;109020;1257;69219;-67
2023/08/21 08:20:29;;;;;;;6.30;1.40;;;;;;;36.74;26.93;100347.29;109101;1257;73166;-71
2023/08/21 08:23:16;;;;;;;7.00;1.20;;;;;;;36.82;26.84;100348.18;108970;1258;57759;-67
2023/08/21 08:26:03;;;;;;;6.70;1.20;;;;;;;36.94;26.89;100346.89;109060;1257;60158;-68
2023/08/21 08:28:49;;;;;;;5.80;1.20;;;;;;;36.98;26.59;100348.46;109028;1262;72767;-68
2023/08/21 08:31:38;;;;;;;7.60;1.50;;;;;;;37.05;26.74;100345.19;109108;1257;66735;-67
2023/08/21 08:34:24;;;;;;;6.40;1.30;;;;;;;37.09;26.75;100348.98;109058;1257;73002;-71
2023/08/21 08:37:11;;;;;;;6.30;1.20;;;;;;;37.46;26.27;100347.56;109084;1257;57346;-68
2023/08/21 08:39:57;;;;;;;7.20;1.40;;;;;;;37.72;26.25;100350.45;109069;1257;59450;-69
2023/08/21 08:42:44;;;;;;;5.10;1.10;;;;;;;37.90;25.02;100351.45;109020;1257;73947;-69
2023/08/21 08:45:31;;;;;;;7.10;1.20;;;;;;;37.89;25.41;100353.63;109077;1257;67868;-67
2023/08/21 08:48:20;;;;;;;6.20;1.10;;;;;;;37.98;25.16;100350.79;108971;1258;72667;-70
2023/08/21 08:51:06;;;;;;;6.10;1.00;;;;;;;37.37;25.90;100346.45;108994;1259;57918;-68
2023/08/21 08:53:53;;;;;;;7.20;1.30;;;;;;;37.14;26.01;100344.56;108922;1261;60066;-67
2023/08/21 08:56:39;;;;;;;7.60;1.50;;;;;;;36.64;26.71;100342.59;109037;1257;73888;-69
2023/08/21 08:59:25;;;;;;;7.00;1.40;;;;;;;36.64;27.16;100337.77;109064;1257;67807;-67
2023/08/21 09:02:12;;;;;;;6.50;1.30;;;;;;;36.96;26.57;100338.39;109064;1257;72962;-67
2023/08/21 09:04:58;;;;;;;7.00;1.50;;;;;;;36.94;26.47;100340.79;109076;1257;58184;-67
2023/08/21 09:07:44;;;;;;;6.30;1.20;;;;;;;37.14;26.42;100338.63;109053;1257;60268;-71
2023/08/21 09:10:31;;;;;;;7.60;1.30;;;;;;;37.24;25.71;100339.14;108997;1258;71941;-69
2023/08/21 09:13:19;;;;;;;7.00;1.30;;;;;;;37.34;25.14;100341.90;108963;1257;68660;-69
2023/08/21 09:16:05;;;;;;;10.50;1.50;;;;;;;37.43;25.47;100345.05;108983;1257;72639;-70
2023/08/21 09:18:57;;;;;;;5.90;1.10;;;;;;;37.46;25.46;100341.00;109026;1257;59039;-70
2023/08/21 09:21:43;;;;;;;6.60;1.50;;;;;;;37.46;25.37;100338.95;108978;1257;61540;-68
2023/08/21 09:24:29;;;;;;;6.20;1.20;;;;;;;37.39;25.46;100331.48;109092;1257;73753;-70
2023/08/21 09:27:16;;;;;;;5.80;1.30;;;;;;;37.46;25.43;100332.35;109092;1257;68901;-69
2023/08/21 09:30:14;;;;;;;6.20;1.10;;;;;;;36.35;26.18;100329.73;109024;1257;72341;-70
2023/08/21 09:33:00;;;;;;;5.70;1.30;;;;;;;36.21;26.50;100326.08;108986;1257;58923;-70
2023/08/21 09:35:48;;;;;;;7.30;1.40;;;;;;;35.15;27.76;100332.73;109074;1257;58889;-69
2023/08/21 09:38:35;;;;;;;6.10;1.20;;;;;;;35.47;27.51;100330.55;109070;1257;73069;-69
2023/08/21 09:41:24;;;;;;;5.40;1.10;;;;;;;36.10;27.24;100319.64;109033;1257;68774;-68
2023/08/21 09:44:10;;;;;;;5.90;1.20;;;;;;;36.11;26.24;100315.87;109018;1259;71365;-68
2023/08/21 09:46:56;;;;;;;6.40;1.20;;;;;;;36.41;26.65;100314.36;108962;1260;58836;-68
2023/08/21 09:49:43;;;;;;;5.50;1.10;;;;;;;36.76;26.74;100313.23;108907;1261;61800;-65
2023/08/21 09:52:30;;;;;;;7.80;1.00;;;;;;;36.92;25.88;100309.75;108995;1259;71588;-67
2023/08/21 09:55:17;;;;;;;6.70;1.20;;;;;;;36.83;25.23;100305.48;109020;1258;68667;-75
2023/08/21 09:58:04;;;;;;;6.40;1.20;;;;;;;36.41;26.08;100306.21;108926;1260;72836;-67
2023/08/21 10:00:56;;;;;;;6.40;1.30;;;;;;;36.95;26.15;100304.79;109023;1260;57398;-68
2023/08/21 10:03:47;;;;;;;7.10;1.40;;;;;;;37.09;25.61;100300.84;108894;1258;58298;-67
2023/08/21 10:06:34;;;;;;;7.90;1.30;;;;;;;36.82;26.04;100302.48;109075;1257;73016;-74
2023/08/21 10:09:23;;;;;;;7.10;1.20;;;;;;;36.01;26.90;100298.64;109045;1257;66293;-69
2023/08/21 10:12:12;;;;;;;7.60;1.40;;;;;;;35.25;27.54;100304.11;108929;1257;72724;-69
2023/08/21 10:14:58;;;;;;;6.80;1.30;;;;;;;33.92;28.93;100299.36;108966;1259;57848;-67
2023/08/21 10:17:44;;;;;;;6.90;1.30;;;;;;;32.93;30.21;100295.56;109010;1259;61120;-68
2023/08/21 10:20:30;;;;;;;7.70;1.50;;;;;;;32.11;31.37;100293.62;109051;1260;73432;-61
2023/08/21 10:23:31;;;;;;;6.80;1.40;;;;;;;31.50;32.69;100294.95;109016;1258;69059;-60
2023/08/21 10:26:25;;;;;;;9.10;1.50;;;;;;;31.84;32.17;100288.21;108974;1258;73158;-61
2023/08/21 10:29:12;;;;;;;8.20;1.40;;;;;;;31.80;32.71;100287.44;108982;1259;57498;-60
2023/08/21 10:32:03;;;;;;;6.40;1.40;;;;;;;31.34;33.00;100291.55;108999;1258;60105;-60
2023/08/21 10:34:53;;;;;;;6.90;1.40;;;;;;;31.83;32.96;100286.48;109073;1257;71826;-62
2023/08/21 10:38:17;;;;;;;7.20;1.50;;;;;;;31.20;33.92;100296.92;109082;1257;67585;-59
2023/08/21 10:41:08;;;;;;;6.50;1.20;;;;;;;30.49;34.60;100295.66;108902;1257;73716;-59
2023/08/21 10:43:55;;;;;;;7.20;1.20;;;;;;;30.04;35.36;100295.42;109010;1257;57861;-61
2023/08/21 10:46:51;;;;;;;7.70;2.80;;;;;;;30.52;35.40;100289.41;109086;1257;60663;-59
2023/08/21 10:49:37;;;;;;;8.20;2.30;;;;;;;30.04;35.63;100293.98;109044;1257;72839;-59
2023/08/21 10:52:30;;;;;;;7.60;1.70;;;;;;;30.50;34.37;100297.66;109104;1257;66599;-62
2023/08/21 10:55:20;;;;;;;6.90;1.10;;;;;;;30.91;33.42;100298.39;108957;1257;72658;-64
2023/08/21 10:58:11;;;;;;;8.60;1.50;;;;;;;30.39;33.67;100299.91;109061;1257;58836;-62
2023/08/21 11:00:59;;;;;;;6.50;1.10;;;;;;;31.33;32.48;100298.09;109006;1257;60064;-60
2023/08/21 11:03:49;;;;;;;6.20;1.30;;;;;;;31.94;31.83;100294.00;109033;1257;72841;-60
2023/08/21 11:06:36;;;;;;;5.80;1.30;;;;;;;31.84;32.37;100291.35;109038;1257;68939;-61
2023/08/21 11:09:22;;;;;;;7.00;1.80;;;;;;;32.57;32.39;100296.38;109035;1257;74023;-62
2023/08/21 11:12:21;;;;;;;6.50;1.40;;;;;;;33.01;31.81;100293.33;109063;1257;58954;-60
2023/08/21 11:15:11;;;;;;;6.60;1.40;;;;;;;33.00;31.53;100290.73;109075;1257;61159;-60
2023/08/21 11:18:00;;;;;;;7.50;1.20;;;;;;;33.11;31.32;100293.07;109011;1257;72975;-61
2023/08/21 11:20:47;;;;;;;7.80;1.50;;;;;;;33.19;30.60;100295.35;109105;1257;68881;-61
2023/08/21 11:23:35;;;;;;;6.60;1.10;;;;;;;32.28;31.29;100296.19;109033;1257;72581;-60
2023/08/21 11:26:21;;;;;;;7.10;1.10;;;;;;;31.19;32.81;100300.95;108943;1257;59087;-61
2023/08/21 11:29:08;;;;;;;8.30;1.40;;;;;;;30.62;33.81;100298.05;109105;1257;60289;-61
2023/08/21 11:31:54;;;;;;;8.40;1.40;;;;;;;30.04;34.76;100298.98;109017;1257;73982;-61
2023/08/21 11:34:44;;;;;;;9.50;1.30;;;;;;;30.29;35.05;100300.85;109085;1257;68995;-60
2023/08/21 11:37:30;;;;;;;8.10;1.40;;;;;;;29.81;35.08;100300.25;109069;1257;71791;-60
2023/08/21 11:40:16;;;;;;;6.70;1.40;;;;;;;29.66;35.51;100297.73;108996;1257;57996;-58
2023/08/21 11:43:05;;;;;;;8.30;1.70;;;;;;;30.07;34.64;100297.52;109101;1257;60455;-61
2023/08/21 11:45:51;;;;;;;7.50;1.30;;;;;;;30.15;35.02;100298.50;109033;1257;74002;-61
2023/08/21 11:48:45;;;;;;;7.30;1.20;;;;;;;29.84;35.48;100294.29;109107;1257;66259;-62
2023/08/21 11:51:39;;;;;;;8.90;1.90;;;;;;;29.61;35.35;100293.27;109077;1257;71814;-62
2023/08/21 11:54:25;;;;;;;7.00;1.30;;;;;;;29.24;35.41;100295.04;109054;1257;59087;-61
2023/08/21 11:57:15;;;;;;;6.40;1.30;;;;;;;28.85;36.23;100301.59;109065;1257;59143;-64
2023/08/21 12:00:01;;;;;;;7.30;1.20;;;;;;;28.24;37.87;100297.00;108898;1258;71743;-59
2023/08/21 12:03:00;;;;;;;7.70;1.50;;;;;;;27.45;37.73;100303.64;109003;1258;68006;-60
2023/08/21 12:05:46;;;;;;;8.80;1.30;;;;;;;27.21;38.40;100302.65;109006;1258;72540;-61
2023/08/21 12:08:32;;;;;;;7.80;1.50;;;;;;;27.19;38.63;100302.16;108949;1257;57376;-60
2023/08/21 12:11:18;;;;;;;6.10;1.30;;;;;;;27.19;39.81;100305.40;109036;1257;61252;-61
2023/08/21 12:14:05;;;;;;;7.90;1.40;;;;;;;27.06;39.98;100304.11;109089;1257;73962;-60
2023/08/21 12:16:52;;;;;;;8.70;1.30;;;;;;;27.18;39.38;100298.60;109109;1257;66573;-61
2023/08/21 12:19:38;;;;;;;6.10;1.10;;;;;;;27.28;39.31;100295.54;109083;1257;73707;-62
2023/08/21 12:22:24;;;;;;;8.60;1.40;;;;;;;27.27;39.43;100293.73;109018;1257;57331;-62
2023/08/21 12:25:13;;;;;;;7.80;1.40;;;;;;;27.04;39.75;100291.70;109035;1257;61589;-61
2023/08/21 12:27:59;;;;;;;9.40;1.40;;;;;;;26.85;41.03;100298.45;109036;1257;74025;-62
2023/08/21 12:30:56;;;;;;;8.30;1.40;;;;;;;26.82;41.30;100301.52;109101;1257;68674;-61
2023/08/21 12:33:43;;;;;;;7.80;1.40;;;;;;;26.82;41.31;100302.61;109076;1257;73914;-60
2023/08/21 12:36:29;;;;;;;7.30;1.30;;;;;;;26.68;40.93;100306.85;109013;1257;57890;-61
2023/08/21 12:39:16;;;;;;;7.20;1.20;;;;;;;26.79;39.78;100300.17;109102;1257;60401;-62
2023/08/21 12:42:04;;;;;;;5.90;1.20;;;;;;;26.86;38.92;100304.54;109049;1257;73812;-65
2023/08/21 12:44:50;;;;;;;5.60;1.30;;;;;;;26.73;38.64;100302.55;109088;1257;69417;-62
2023/08/21 12:47:36;;;;;;;5.70;1.00;;;;;;;26.64;38.84;100304.18;109061;1257;72109;-61